DAUO/ELU METAR and TAF weather

Enter ICAO airport designator
Station Type Date Time Source
DAUO METAR 2019/05/19 21:00 UTC NOAA

DAUO 192100Z 34009KT 9999 FEW046 SCT100 23/03 Q1011


Station Type Date Time Source
DAUO Decoded METAR 2019/05/19 21:00 UTC NOAA

El Oued, Algeria (DAUO) 33-30N 006-07E 63M
May 19, 2019 - 05:00 PM EDT / 2019.05.19 2100 UTC
Wind: from the NNW (340 degrees) at 10 MPH (9 KT):0
Visibility: greater than 7 mile(s):0
Sky conditions: partly cloudy
Temperature: 73 F (23 C)
Dew Point: 37 F (3 C)
Relative Humidity: 26%
Pressure (altimeter): 29.85 in. Hg (1011 hPa)
ob: DAUO 192100Z 34009KT 9999 FEW046 SCT100 23/03 Q1011
cycle: 21

Station Type Date Time Source
DAUO TAF 2017/11/09 18:03 UTC NOAA

TAF DAUO 091700Z 0918/1009 28010KT 9999 SCT033 SCT100 PROB30
TEMPO 0918/0924 28015G25KT 5000 -TSRA FEW036CB

Example: see airport list